首页
METAR-TAF:

METAR-TAF

机场 :

香農機場

Shannon, 爱尔兰

纬度: 52-42N, 经度: 008-55W, 海拔: 14米

当前天气观测

该预报发布于30分钟前的14:30 UTC
风速4节,风向西南
温度 8°C
湿度 93%
气压 1042 hPa
能見度: 7000
少量云层高于300英尺
散云层高于500英尺
多云层高于900英尺
小毛毛雨

METAR: EINN 211430Z 22004KT 7000 -DZ FEW003 SCT005 BKN009 08/07 Q1042 TEMPO BKN005

时间: 15:00 (15:00 UTC)

预报

该预报发布于4小时和0分钟前的11:00 UTC
预报有效从21日的 12点(UTC)到 22日的 12点(UTC)
风速3节,风向多变
能见度10公里或以上
散云层高于800英尺
多云层高于1500英尺
几率 40% :
短暂存在
从 21日的 12点(UTC)到 21日的 15点(UTC)
能見度: 4000
多云层高于800英尺
小毛毛雨, 轻雾
成为
从 21日的 15点(UTC)到 21日的 17点(UTC)
能見度: 6000
散云层高于300英尺
多云层高于800英尺
短暂存在
从 21日的 15点(UTC)到 22日的 12点(UTC)
能見度: 2000
多云层高于300英尺
小毛毛雨, 轻雾
几率 30% :
短暂存在
从 21日的 19点(UTC)到 22日的 09点(UTC)
能見度: 0500
多云层高于100英尺

TAF: EINN 211100Z 2112/2212 VRB03KT 9999 SCT008 BKN015 PROB40 TEMPO 2112/2115 4000 -DZ BR BKN008 BECMG 2115/2117 6000 SCT003 BKN008 TEMPO 2115/2212 2000 -DZ BR BKN003 PROB30 TEMPO 2119/2209 0500 FG BKN001

超过4000个机场的气象观测和天气预报(METAR&TAF报告)。

可查询的气象台以黄色和红色小点在地图上表示。

将鼠标移到小点上方,可查看气象台名称。

然后点击查看天气观测和预报。

如需切换地图:点击带黑十字的绿色按钮放大地图;点击带横线的绿色按钮缩小地图;或者点击绿色箭头查看邻近地区的地图。


METAR-TAF: